sensor_id;sensor_type;location;lat;lon;timestamp;pressure;altitude;pressure_sealevel;temperature;humidity
72409;BME280;60402;48.082;11.628;2022-08-19T00:00:08;94909.63;;;19.00;86.83
72409;BME280;60402;48.082;11.628;2022-08-19T00:02:35;94914.59;;;19.05;86.40
72409;BME280;60402;48.082;11.628;2022-08-19T00:05:02;94915.63;;;19.02;86.30
72409;BME280;60402;48.082;11.628;2022-08-19T00:07:27;94903.97;;;19.11;85.78
72409;BME280;60402;48.082;11.628;2022-08-19T00:09:53;94882.59;;;19.01;85.93
72409;BME280;60402;48.082;11.628;2022-08-19T00:12:19;94900.00;;;18.97;86.48
72409;BME280;60402;48.082;11.628;2022-08-19T00:14:45;94882.59;;;19.06;85.63
72409;BME280;60402;48.082;11.628;2022-08-19T00:17:10;94880.00;;;19.14;85.27
72409;BME280;60402;48.082;11.628;2022-08-19T00:19:36;94876.09;;;19.11;85.13
72409;BME280;60402;48.082;11.628;2022-08-19T00:22:02;94860.47;;;19.01;85.76
72409;BME280;60402;48.082;11.628;2022-08-19T00:24:28;94848.22;;;19.01;85.38
72409;BME280;60402;48.082;11.628;2022-08-19T00:26:54;94842.19;;;18.87;86.04
72409;BME280;60402;48.082;11.628;2022-08-19T00:29:20;94850.00;;;18.87;85.47
72409;BME280;60402;48.082;11.628;2022-08-19T00:31:46;94851.03;;;18.89;85.74
72409;BME280;60402;48.082;11.628;2022-08-19T00:34:13;94842.91;;;18.77;85.89
72409;BME280;60402;48.082;11.628;2022-08-19T00:36:40;94849.94;;;18.76;86.07
72409;BME280;60402;48.082;11.628;2022-08-19T00:39:06;94862.47;;;18.89;86.09
72409;BME280;60402;48.082;11.628;2022-08-19T00:41:31;94855.44;;;18.85;85.60
72409;BME280;60402;48.082;11.628;2022-08-19T00:44:00;94852.78;;;18.76;86.26
72409;BME280;60402;48.082;11.628;2022-08-19T00:46:26;94841.09;;;18.79;85.97
72409;BME280;60402;48.082;11.628;2022-08-19T00:48:52;94838.41;;;18.64;86.69
72409;BME280;60402;48.082;11.628;2022-08-19T00:51:18;94831.97;;;18.75;86.21
72409;BME280;60402;48.082;11.628;2022-08-19T00:53:43;94804.31;;;18.61;86.49
72409;BME280;60402;48.082;11.628;2022-08-19T00:56:09;94794.72;;;18.58;86.54
72409;BME280;60402;48.082;11.628;2022-08-19T00:58:35;94814.69;;;18.53;87.72
72409;BME280;60402;48.082;11.628;2022-08-19T01:01:02;94814.34;;;18.39;87.72
72409;BME280;60402;48.082;11.628;2022-08-19T01:03:28;94836.31;;;18.54;87.19
72409;BME280;60402;48.082;11.628;2022-08-19T01:05:55;94826.66;;;18.51;87.01
72409;BME280;60402;48.082;11.628;2022-08-19T01:08:21;94810.78;;;18.50;87.16
72409;BME280;60402;48.082;11.628;2022-08-19T01:10:50;94820.41;;;18.53;87.19
72409;BME280;60402;48.082;11.628;2022-08-19T01:13:19;94815.75;;;18.55;87.01
72409;BME280;60402;48.082;11.628;2022-08-19T01:15:48;94812.59;;;18.53;87.06
72409;BME280;60402;48.082;11.628;2022-08-19T01:18:17;94793.09;;;18.46;86.47
72409;BME280;60402;48.082;11.628;2022-08-19T01:20:43;94803.97;;;18.36;87.86
72409;BME280;60402;48.082;11.628;2022-08-19T01:23:09;94830.78;;;18.45;88.10
72409;BME280;60402;48.082;11.628;2022-08-19T01:25:40;94828.19;;;18.47;87.79
72409;BME280;60402;48.082;11.628;2022-08-19T01:28:06;94842.03;;;18.54;87.20
72409;BME280;60402;48.082;11.628;2022-08-19T01:30:34;94856.63;;;18.67;86.99
72409;BME280;60402;48.082;11.628;2022-08-19T01:33:00;94870.66;;;18.59;87.13
72409;BME280;60402;48.082;11.628;2022-08-19T01:35:28;94858.94;;;18.57;86.62
72409;BME280;60402;48.082;11.628;2022-08-19T01:37:55;94876.47;;;18.76;85.87
72409;BME280;60402;48.082;11.628;2022-08-19T01:40:23;94870.16;;;18.67;86.64
72409;BME280;60402;48.082;11.628;2022-08-19T01:42:50;94855.63;;;18.70;85.90
72409;BME280;60402;48.082;11.628;2022-08-19T01:45:17;94852.03;;;18.75;85.48
72409;BME280;60402;48.082;11.628;2022-08-19T01:47:42;94864.75;;;18.69;85.90
72409;BME280;60402;48.082;11.628;2022-08-19T01:50:10;94883.50;;;18.75;85.80
72409;BME280;60402;48.082;11.628;2022-08-19T01:52:37;94887.16;;;18.76;85.66
72409;BME280;60402;48.082;11.628;2022-08-19T01:55:06;94901.75;;;18.78;85.53
72409;BME280;60402;48.082;11.628;2022-08-19T01:57:32;94877.53;;;18.79;85.33
72409;BME280;60402;48.082;11.628;2022-08-19T01:59:58;94874.94;;;18.81;85.03
72409;BME280;60402;48.082;11.628;2022-08-19T02:02:24;94878.88;;;18.83;85.16
72409;BME280;60402;48.082;11.628;2022-08-19T02:04:50;94877.84;;;18.92;84.40
72409;BME280;60402;48.082;11.628;2022-08-19T02:07:15;94880.41;;;18.84;84.90
72409;BME280;60402;48.082;11.628;2022-08-19T02:09:43;94880.97;;;18.88;84.93
72409;BME280;60402;48.082;11.628;2022-08-19T02:12:08;94887.47;;;18.89;84.56
72409;BME280;60402;48.082;11.628;2022-08-19T02:14:35;94896.84;;;18.89;84.50
72409;BME280;60402;48.082;11.628;2022-08-19T02:17:01;94893.66;;;18.82;84.93
72409;BME280;60402;48.082;11.628;2022-08-19T02:19:26;94896.81;;;18.84;84.81
72409;BME280;60402;48.082;11.628;2022-08-19T02:21:52;94890.56;;;18.85;84.40
72409;BME280;60402;48.082;11.628;2022-08-19T02:24:18;94903.81;;;18.77;84.99
72409;BME280;60402;48.082;11.628;2022-08-19T02:26:43;94880.94;;;18.77;84.32
72409;BME280;60402;48.082;11.628;2022-08-19T02:29:08;94904.31;;;18.76;84.71
72409;BME280;60402;48.082;11.628;2022-08-19T02:31:34;94899.66;;;18.78;84.74
72409;BME280;60402;48.082;11.628;2022-08-19T02:33:59;94883.28;;;18.84;84.43
72409;BME280;60402;48.082;11.628;2022-08-19T02:36:26;94871.59;;;18.88;83.64
72409;BME280;60402;48.082;11.628;2022-08-19T02:38:52;94869.72;;;18.79;84.24
72409;BME280;60402;48.082;11.628;2022-08-19T02:41:22;94843.72;;;18.77;84.25
72409;BME280;60402;48.082;11.628;2022-08-19T02:43:47;94832.94;;;18.67;84.63
72409;BME280;60402;48.082;11.628;2022-08-19T02:46:20;94824.34;;;18.55;85.28
72409;BME280;60402;48.082;11.628;2022-08-19T02:48:51;94814.44;;;18.56;85.08
72409;BME280;60402;48.082;11.628;2022-08-19T02:51:26;94824.34;;;18.61;84.84
72409;BME280;60402;48.082;11.628;2022-08-19T02:53:52;94828.59;;;18.71;84.53
72409;BME280;60402;48.082;11.628;2022-08-19T02:56:17;94810.25;;;18.52;84.60
72409;BME280;60402;48.082;11.628;2022-08-19T02:58:43;94822.72;;;18.49;85.30
72409;BME280;60402;48.082;11.628;2022-08-19T03:01:10;94830.78;;;18.45;85.94
72409;BME280;60402;48.082;11.628;2022-08-19T03:03:37;94830.72;;;18.33;85.64
72409;BME280;60402;48.082;11.628;2022-08-19T03:06:11;94834.72;;;18.53;85.46
72409;BME280;60402;48.082;11.628;2022-08-19T03:08:41;94833.38;;;18.43;85.55
72409;BME280;60402;48.082;11.628;2022-08-19T03:11:20;94834.44;;;18.45;85.70
72409;BME280;60402;48.082;11.628;2022-08-19T03:13:47;94849.72;;;18.36;85.88
72409;BME280;60402;48.082;11.628;2022-08-19T03:16:14;94840.38;;;18.36;85.61
72409;BME280;60402;48.082;11.628;2022-08-19T03:18:41;94846.09;;;18.36;86.13
72409;BME280;60402;48.082;11.628;2022-08-19T03:21:06;94841.06;;;18.25;86.08
72409;BME280;60402;48.082;11.628;2022-08-19T03:23:32;94860.66;;;18.38;85.90
72409;BME280;60402;48.082;11.628;2022-08-19T03:25:57;94873.69;;;18.45;85.64
72409;BME280;60402;48.082;11.628;2022-08-19T03:28:23;94848.47;;;18.49;84.99
72409;BME280;60402;48.082;11.628;2022-08-19T03:31:01;94858.84;;;18.41;85.90
72409;BME280;60402;48.082;11.628;2022-08-19T03:33:28;94847.41;;;18.41;85.51
72409;BME280;60402;48.082;11.628;2022-08-19T03:36:09;94847.44;;;18.46;85.43
72409;BME280;60402;48.082;11.628;2022-08-19T03:38:44;94853.47;;;18.54;85.13
72409;BME280;60402;48.082;11.628;2022-08-19T03:41:11;94859.44;;;18.56;85.10
72409;BME280;60402;48.082;11.628;2022-08-19T03:43:38;94852.38;;;18.46;85.46
72409;BME280;60402;48.082;11.628;2022-08-19T03:46:12;94858.56;;;18.38;85.92
72409;BME280;60402;48.082;11.628;2022-08-19T03:48:39;94869.03;;;18.47;85.50
72409;BME280;60402;48.082;11.628;2022-08-19T03:51:06;94865.69;;;18.54;85.25
72409;BME280;60402;48.082;11.628;2022-08-19T03:53:33;94857.66;;;18.64;84.90
72409;BME280;60402;48.082;11.628;2022-08-19T03:56:00;94836.22;;;18.43;85.61
72409;BME280;60402;48.082;11.628;2022-08-19T03:58:27;94852.91;;;18.50;85.30
72409;BME280;60402;48.082;11.628;2022-08-19T04:00:54;94856.59;;;18.56;85.12
72409;BME280;60402;48.082;11.628;2022-08-19T04:03:20;94860.97;;;18.51;85.68
72409;BME280;60402;48.082;11.628;2022-08-19T04:05:46;94861.53;;;18.55;85.57
72409;BME280;60402;48.082;11.628;2022-08-19T04:08:12;94858.69;;;18.61;84.96
72409;BME280;60402;48.082;11.628;2022-08-19T04:10:38;94859.69;;;18.58;85.23
72409;BME280;60402;48.082;11.628;2022-08-19T04:13:04;94844.13;;;18.59;84.65
72409;BME280;60402;48.082;11.628;2022-08-19T04:15:31;94864.09;;;18.53;85.70
72409;BME280;60402;48.082;11.628;2022-08-19T04:18:01;94863.31;;;18.53;86.02
72409;BME280;60402;48.082;11.628;2022-08-19T04:20:26;94854.25;;;18.54;85.32
72409;BME280;60402;48.082;11.628;2022-08-19T04:22:52;94865.03;;;18.76;84.76
72409;BME280;60402;48.082;11.628;2022-08-19T04:25:17;94841.22;;;18.53;85.37
72409;BME280;60402;48.082;11.628;2022-08-19T04:27:42;94851.13;;;18.58;85.23
72409;BME280;60402;48.082;11.628;2022-08-19T04:30:11;94870.66;;;18.59;85.49
72409;BME280;60402;48.082;11.628;2022-08-19T04:32:36;94875.59;;;18.59;85.33
72409;BME280;60402;48.082;11.628;2022-08-19T04:35:02;94873.00;;;18.61;85.65
72409;BME280;60402;48.082;11.628;2022-08-19T04:37:27;94877.94;;;18.60;85.50
72409;BME280;60402;48.082;11.628;2022-08-19T04:39:57;94880.53;;;18.58;85.54
72409;BME280;60402;48.082;11.628;2022-08-19T04:42:41;94872.97;;;18.55;85.22
72409;BME280;60402;48.082;11.628;2022-08-19T04:45:10;94887.31;;;18.61;85.34
72409;BME280;60402;48.082;11.628;2022-08-19T04:47:37;94900.97;;;18.77;84.82
72409;BME280;60402;48.082;11.628;2022-08-19T04:50:05;94907.34;;;18.67;84.98
72409;BME280;60402;48.082;11.628;2022-08-19T04:52:31;94907.31;;;18.55;85.66
72409;BME280;60402;48.082;11.628;2022-08-19T04:54:57;94915.91;;;18.61;85.26
72409;BME280;60402;48.082;11.628;2022-08-19T04:57:23;94906.38;;;18.70;84.71
72409;BME280;60402;48.082;11.628;2022-08-19T04:59:48;94900.34;;;18.68;84.55
72409;BME280;60402;48.082;11.628;2022-08-19T05:02:14;94910.78;;;18.71;84.71
72409;BME280;60402;48.082;11.628;2022-08-19T05:04:39;94913.19;;;18.78;84.29
72409;BME280;60402;48.082;11.628;2022-08-19T05:07:05;94913.66;;;18.71;84.50
72409;BME280;60402;48.082;11.628;2022-08-19T05:09:31;94920.38;;;18.68;84.74
72409;BME280;60402;48.082;11.628;2022-08-19T05:11:56;94929.66;;;18.51;85.69
72409;BME280;60402;48.082;11.628;2022-08-19T05:14:22;94928.44;;;18.63;84.85
72409;BME280;60402;48.082;11.628;2022-08-19T05:16:48;94914.38;;;18.65;84.69
72409;BME280;60402;48.082;11.628;2022-08-19T05:19:13;94910.47;;;18.63;84.18
72409;BME280;60402;48.082;11.628;2022-08-19T05:21:57;94925.66;;;18.75;84.42
72409;BME280;60402;48.082;11.628;2022-08-19T05:24:41;94914.72;;;18.73;84.13
72409;BME280;60402;48.082;11.628;2022-08-19T05:27:07;94896.78;;;18.73;83.92
72409;BME280;60402;48.082;11.628;2022-08-19T05:29:33;94913.72;;;18.82;84.16
72409;BME280;60402;48.082;11.628;2022-08-19T05:32:00;94901.47;;;18.81;83.93
72409;BME280;60402;48.082;11.628;2022-08-19T05:34:26;94899.41;;;18.82;83.68
72409;BME280;60402;48.082;11.628;2022-08-19T05:36:55;94908.03;;;18.87;83.71
72409;BME280;60402;48.082;11.628;2022-08-19T05:39:23;94886.16;;;18.84;83.48
72409;BME280;60402;48.082;11.628;2022-08-19T05:41:52;94888.78;;;18.88;83.88
72409;BME280;60402;48.082;11.628;2022-08-19T05:44:19;94898.13;;;18.88;83.68
72409;BME280;60402;48.082;11.628;2022-08-19T05:46:47;94891.34;;;18.86;83.76
72409;BME280;60402;48.082;11.628;2022-08-19T05:49:13;94897.13;;;18.92;83.76
72409;BME280;60402;48.082;11.628;2022-08-19T05:51:39;94890.34;;;18.95;83.82
72409;BME280;60402;48.082;11.628;2022-08-19T05:54:05;94901.81;;;18.95;84.14
72409;BME280;60402;48.082;11.628;2022-08-19T05:56:31;94880.72;;;18.92;83.87
72409;BME280;60402;48.082;11.628;2022-08-19T05:58:57;94891.69;;;19.05;83.41
72409;BME280;60402;48.082;11.628;2022-08-19T06:01:24;94903.91;;;19.00;83.82
72409;BME280;60402;48.082;11.628;2022-08-19T06:03:50;94899.47;;;18.93;84.26
72409;BME280;60402;48.082;11.628;2022-08-19T06:06:16;94900.00;;;18.97;84.83
72409;BME280;60402;48.082;11.628;2022-08-19T06:08:41;94897.16;;;19.08;84.62
72409;BME280;60402;48.082;11.628;2022-08-19T06:13:40;94905.72;;;18.92;87.42
72409;BME280;60402;48.082;11.628;2022-08-19T06:16:05;94923.63;;;18.86;87.41
72409;BME280;60402;48.082;11.628;2022-08-19T06:18:30;94918.72;;;18.93;87.06
72409;BME280;60402;48.082;11.628;2022-08-19T06:20:56;94917.19;;;19.03;86.53
72409;BME280;60402;48.082;11.628;2022-08-19T06:23:21;94911.94;;;18.90;87.26
72409;BME280;60402;48.082;11.628;2022-08-19T06:25:47;94923.44;;;19.01;86.97
72409;BME280;60402;48.082;11.628;2022-08-19T06:28:12;94911.16;;;18.95;87.74
72409;BME280;60402;48.082;11.628;2022-08-19T06:30:38;94912.75;;;18.96;88.30
72409;BME280;60402;48.082;11.628;2022-08-19T06:33:03;94914.59;;;19.05;87.52
72409;BME280;60402;48.082;11.628;2022-08-19T06:35:28;94903.41;;;19.01;88.29
72409;BME280;60402;48.082;11.628;2022-08-19T06:37:54;94898.94;;;18.95;88.25
72409;BME280;60402;48.082;11.628;2022-08-19T06:40:20;94904.19;;;19.02;87.96
72409;BME280;60402;48.082;11.628;2022-08-19T06:42:45;94904.69;;;19.00;88.63
72409;BME280;60402;48.082;11.628;2022-08-19T06:45:11;94916.91;;;18.95;88.94
72409;BME280;60402;48.082;11.628;2022-08-19T06:47:36;94910.69;;;19.02;88.80
72409;BME280;60402;48.082;11.628;2022-08-19T06:50:02;94913.81;;;19.04;88.55
72409;BME280;60402;48.082;11.628;2022-08-19T06:52:31;94903.09;;;18.94;88.93
72409;BME280;60402;48.082;11.628;2022-08-19T06:54:57;94909.38;;;18.98;89.36
72409;BME280;60402;48.082;11.628;2022-08-19T06:57:24;94898.72;;;19.04;88.81
72409;BME280;60402;48.082;11.628;2022-08-19T06:59:49;94897.72;;;19.18;87.39
72409;BME280;60402;48.082;11.628;2022-08-19T07:02:15;94898.78;;;19.15;87.48
72409;BME280;60402;48.082;11.628;2022-08-19T07:04:40;94895.09;;;19.09;88.06
72409;BME280;60402;48.082;11.628;2022-08-19T07:07:08;94898.25;;;19.22;87.36
72409;BME280;60402;48.082;11.628;2022-08-19T07:09:37;94903.97;;;19.22;87.59
72409;BME280;60402;48.082;11.628;2022-08-19T07:12:06;94898.56;;;19.47;87.14
72409;BME280;60402;48.082;11.628;2022-08-19T07:14:32;94896.31;;;19.62;87.01
72409;BME280;60402;48.082;11.628;2022-08-19T07:17:01;94872.78;;;19.47;86.38
72409;BME280;60402;48.082;11.628;2022-08-19T07:19:28;94863.44;;;19.57;86.09
72409;BME280;60402;48.082;11.628;2022-08-19T07:21:54;94855.09;;;19.59;85.97
72409;BME280;60402;48.082;11.628;2022-08-19T07:24:23;94874.16;;;19.68;86.37
72409;BME280;60402;48.082;11.628;2022-08-19T07:26:50;94867.38;;;19.88;85.81
72409;BME280;60402;48.082;11.628;2022-08-19T07:29:16;94863.75;;;20.10;85.91
72409;BME280;60402;48.082;11.628;2022-08-19T07:31:42;94855.66;;;20.14;85.50
72409;BME280;60402;48.082;11.628;2022-08-19T07:34:09;94865.81;;;20.21;85.87
72409;BME280;60402;48.082;11.628;2022-08-19T07:36:38;94851.72;;;20.28;84.91
72409;BME280;60402;48.082;11.628;2022-08-19T07:39:09;94867.31;;;20.55;84.18
72409;BME280;60402;48.082;11.628;2022-08-19T07:41:35;94857.41;;;20.51;83.58
72409;BME280;60402;48.082;11.628;2022-08-19T07:44:03;94868.88;;;20.67;82.95
72409;BME280;60402;48.082;11.628;2022-08-19T07:46:36;94879.50;;;20.84;82.67
72409;BME280;60402;48.082;11.628;2022-08-19T07:49:03;94887.38;;;20.78;83.67
72409;BME280;60402;48.082;11.628;2022-08-19T07:51:29;94877.97;;;20.77;83.42
72409;BME280;60402;48.082;11.628;2022-08-19T07:53:54;94861.81;;;20.68;83.61
72409;BME280;60402;48.082;11.628;2022-08-19T07:56:20;94880.63;;;20.64;83.96
72409;BME280;60402;48.082;11.628;2022-08-19T07:58:48;94884.03;;;20.57;85.85
72409;BME280;60402;48.082;11.628;2022-08-19T08:01:19;94876.72;;;20.45;84.76
72409;BME280;60402;48.082;11.628;2022-08-19T08:03:47;94887.41;;;20.55;84.37
72409;BME280;60402;48.082;11.628;2022-08-19T08:06:32;94902.31;;;20.42;85.20
72409;BME280;60402;48.082;11.628;2022-08-19T08:09:20;94899.69;;;20.39;84.27
72409;BME280;60402;48.082;11.628;2022-08-19T08:11:53;94902.81;;;20.35;83.31
72409;BME280;60402;48.082;11.628;2022-08-19T08:14:29;94900.47;;;20.34;83.04
72409;BME280;60402;48.082;11.628;2022-08-19T08:16:55;94900.72;;;20.36;83.90
72409;BME280;60402;48.082;11.628;2022-08-19T08:19:22;94899.69;;;20.28;84.32
72409;BME280;60402;48.082;11.628;2022-08-19T08:21:49;94897.09;;;20.24;84.04
72409;BME280;60402;48.082;11.628;2022-08-19T08:24:15;94907.03;;;20.23;83.81
72409;BME280;60402;48.082;11.628;2022-08-19T08:26:40;94909.88;;;20.01;84.99
72409;BME280;60402;48.082;11.628;2022-08-19T08:29:06;94904.41;;;19.86;85.91
72409;BME280;60402;48.082;11.628;2022-08-19T08:31:35;94916.91;;;19.88;85.60
72409;BME280;60402;48.082;11.628;2022-08-19T08:34:00;94915.88;;;19.86;86.84
72409;BME280;60402;48.082;11.628;2022-08-19T08:36:29;94910.13;;;19.69;88.23
72409;BME280;60402;48.082;11.628;2022-08-19T08:38:59;94916.09;;;19.71;88.03
72409;BME280;60402;48.082;11.628;2022-08-19T08:45:05;94918.47;;;19.84;85.88
72409;BME280;60402;48.082;11.628;2022-08-19T08:47:37;94929.16;;;19.89;86.01
72409;BME280;60402;48.082;11.628;2022-08-19T08:50:08;94919.53;;;19.81;85.89
72409;BME280;60402;48.082;11.628;2022-08-19T08:52:45;94920.56;;;19.78;86.48
72409;BME280;60402;48.082;11.628;2022-08-19T08:55:15;94928.91;;;19.81;87.17
72409;BME280;60402;48.082;11.628;2022-08-19T09:00:23;94938.00;;;19.74;87.41
72409;BME280;60402;48.082;11.628;2022-08-19T09:02:50;94929.41;;;19.69;87.54
72409;BME280;60402;48.082;11.628;2022-08-19T09:05:15;94940.38;;;19.81;87.24
72409;BME280;60402;48.082;11.628;2022-08-19T09:07:43;94941.41;;;19.78;87.70
72409;BME280;60402;48.082;11.628;2022-08-19T09:10:25;94932.50;;;19.65;87.87
72409;BME280;60402;48.082;11.628;2022-08-19T09:15:50;94942.97;;;19.79;88.11
72409;BME280;60402;48.082;11.628;2022-08-19T09:18:17;94937.75;;;19.83;88.29
72409;BME280;60402;48.082;11.628;2022-08-19T09:20:43;94924.19;;;19.89;87.47
72409;BME280;60402;48.082;11.628;2022-08-19T09:23:08;94934.63;;;20.04;87.01
72409;BME280;60402;48.082;11.628;2022-08-19T09:25:35;94924.75;;;20.10;86.63
72409;BME280;60402;48.082;11.628;2022-08-19T09:28:01;94928.41;;;20.05;87.37
72409;BME280;60402;48.082;11.628;2022-08-19T09:30:33;94923.44;;;20.23;86.18
72409;BME280;60402;48.082;11.628;2022-08-19T09:32:59;94935.94;;;20.36;85.89
72409;BME280;60402;48.082;11.628;2022-08-19T09:35:28;94934.91;;;20.45;85.60
72409;BME280;60402;48.082;11.628;2022-08-19T09:37:56;94940.41;;;20.37;85.93
72409;BME280;60402;48.082;11.628;2022-08-19T09:40:26;94935.94;;;20.64;84.51
72409;BME280;60402;48.082;11.628;2022-08-19T09:42:52;94924.13;;;20.96;82.87
72409;BME280;60402;48.082;11.628;2022-08-19T09:45:19;94925.34;;;21.17;82.52
72409;BME280;60402;48.082;11.628;2022-08-19T09:47:47;94925.50;;;21.48;81.32
72409;BME280;60402;48.082;11.628;2022-08-19T09:50:12;94923.91;;;21.93;79.12
72409;BME280;60402;48.082;11.628;2022-08-19T09:52:38;94923.97;;;22.24;79.12
72409;BME280;60402;48.082;11.628;2022-08-19T09:55:08;94928.44;;;22.19;79.18
72409;BME280;60402;48.082;11.628;2022-08-19T09:57:34;94928.38;;;22.30;77.46
72409;BME280;60402;48.082;11.628;2022-08-19T10:00:00;94941.44;;;22.31;78.81
72409;BME280;60402;48.082;11.628;2022-08-19T10:02:25;94932.06;;;22.25;78.74
72409;BME280;60402;48.082;11.628;2022-08-19T10:04:51;94920.84;;;22.22;78.82
72409;BME280;60402;48.082;11.628;2022-08-19T10:07:36;94929.66;;;22.29;77.51
72409;BME280;60402;48.082;11.628;2022-08-19T10:10:04;94938.50;;;22.37;78.13
72409;BME280;60402;48.082;11.628;2022-08-19T10:12:31;94952.59;;;22.05;78.82
72409;BME280;60402;48.082;11.628;2022-08-19T10:14:56;94926.66;;;22.10;79.09
72409;BME280;60402;48.082;11.628;2022-08-19T10:17:22;94940.41;;;22.29;78.11
72409;BME280;60402;48.082;11.628;2022-08-19T10:19:47;94940.63;;;22.36;77.16
72409;BME280;60402;48.082;11.628;2022-08-19T10:22:12;94938.28;;;22.35;78.25
72409;BME280;60402;48.082;11.628;2022-08-19T10:24:38;94936.06;;;22.47;78.76
72409;BME280;60402;48.082;11.628;2022-08-19T10:27:04;94933.91;;;22.83;76.38
72409;BME280;60402;48.082;11.628;2022-08-19T10:29:31;94922.19;;;22.75;77.33
72409;BME280;60402;48.082;11.628;2022-08-19T10:31:58;94925.94;;;22.94;77.39
72409;BME280;60402;48.082;11.628;2022-08-19T10:34:25;94914.97;;;22.93;76.56
72409;BME280;60402;48.082;11.628;2022-08-19T10:36:50;94916.16;;;23.03;74.83
72409;BME280;60402;48.082;11.628;2022-08-19T10:39:16;94916.13;;;22.79;75.24
72409;BME280;60402;48.082;11.628;2022-08-19T10:41:41;94921.13;;;22.78;75.86
72409;BME280;60402;48.082;11.628;2022-08-19T10:44:10;94902.19;;;22.58;76.50
72409;BME280;60402;48.082;11.628;2022-08-19T10:46:39;94914.31;;;22.76;74.96
72409;BME280;60402;48.082;11.628;2022-08-19T10:49:10;94880.38;;;22.68;75.14
72409;BME280;60402;48.082;11.628;2022-08-19T10:51:37;94924.25;;;23.29;73.39
72409;BME280;60402;48.082;11.628;2022-08-19T10:54:22;94920.16;;;23.19;73.63
72409;BME280;60402;48.082;11.628;2022-08-19T10:56:47;94866.53;;;22.91;73.53
72409;BME280;60402;48.082;11.628;2022-08-19T10:59:20;94928.31;;;23.39;72.84
72409;BME280;60402;48.082;11.628;2022-08-19T11:01:47;94924.28;;;22.75;75.88
72409;BME280;60402;48.082;11.628;2022-08-19T11:04:13;94924.41;;;22.63;76.88
72409;BME280;60402;48.082;11.628;2022-08-19T11:06:41;94904.25;;;22.63;76.66
72409;BME280;60402;48.082;11.628;2022-08-19T11:09:08;94911.38;;;22.81;75.12
72409;BME280;60402;48.082;11.628;2022-08-19T11:11:35;94906.88;;;22.91;73.94
72409;BME280;60402;48.082;11.628;2022-08-19T11:14:11;94903.84;;;23.03;73.30
72409;BME280;60402;48.082;11.628;2022-08-19T11:16:37;94902.63;;;23.17;73.50
72409;BME280;60402;48.082;11.628;2022-08-19T11:19:05;94899.53;;;23.15;73.13
72409;BME280;60402;48.082;11.628;2022-08-19T11:21:35;94901.38;;;23.12;73.88
72409;BME280;60402;48.082;11.628;2022-08-19T11:24:06;94904.47;;;23.14;73.67
72409;BME280;60402;48.082;11.628;2022-08-19T11:26:33;94919.44;;;23.13;73.44
72409;BME280;60402;48.082;11.628;2022-08-19T11:29:03;94906.63;;;22.89;73.45
72409;BME280;60402;48.082;11.628;2022-08-19T11:31:31;94904.16;;;22.99;73.28
72409;BME280;60402;48.082;11.628;2022-08-19T11:33:58;94917.41;;;23.08;73.08
72409;BME280;60402;48.082;11.628;2022-08-19T11:36:25;94912.84;;;23.18;73.43
72409;BME280;60402;48.082;11.628;2022-08-19T11:38:51;94896.69;;;22.85;73.37
72409;BME280;60402;48.082;11.628;2022-08-19T11:41:18;94899.53;;;22.90;72.82
72409;BME280;60402;48.082;11.628;2022-08-19T11:43:44;94909.00;;;23.10;72.20
72409;BME280;60402;48.082;11.628;2022-08-19T11:46:11;94908.53;;;23.06;72.75
72409;BME280;60402;48.082;11.628;2022-08-19T11:48:38;94905.00;;;22.94;73.43
72409;BME280;60402;48.082;11.628;2022-08-19T11:51:06;94904.16;;;22.99;73.20
72409;BME280;60402;48.082;11.628;2022-08-19T11:53:32;94905.31;;;22.85;73.07
72409;BME280;60402;48.082;11.628;2022-08-19T11:55:59;94891.81;;;22.50;74.49
72409;BME280;60402;48.082;11.628;2022-08-19T11:58:24;94911.34;;;22.32;75.24
72409;BME280;60402;48.082;11.628;2022-08-19T12:00:54;94917.19;;;22.21;76.53
72409;BME280;60402;48.082;11.628;2022-08-19T12:03:19;94916.84;;;21.94;76.53
72409;BME280;60402;48.082;11.628;2022-08-19T12:05:45;94917.91;;;21.91;76.42
72409;BME280;60402;48.082;11.628;2022-08-19T12:08:11;94896.22;;;21.90;75.53
72409;BME280;60402;48.082;11.628;2022-08-19T12:10:38;94900.56;;;22.03;75.24
72409;BME280;60402;48.082;11.628;2022-08-19T12:13:11;94901.19;;;21.90;75.72
72409;BME280;60402;48.082;11.628;2022-08-19T12:15:39;94914.41;;;22.04;75.47
72409;BME280;60402;48.082;11.628;2022-08-19T12:18:06;94916.47;;;22.09;74.75
72409;BME280;60402;48.082;11.628;2022-08-19T12:20:37;94925.63;;;22.13;74.87
72409;BME280;60402;48.082;11.628;2022-08-19T12:23:05;94940.91;;;21.91;76.94
72409;BME280;60402;48.082;11.628;2022-08-19T12:25:30;94939.13;;;21.88;76.53
72409;BME280;60402;48.082;11.628;2022-08-19T12:27:57;94929.06;;;21.59;76.95
72409;BME280;60402;48.082;11.628;2022-08-19T12:30:22;94930.75;;;21.43;77.47
72409;BME280;60402;48.082;11.628;2022-08-19T12:32:48;94929.78;;;21.18;78.30
72409;BME280;60402;48.082;11.628;2022-08-19T12:35:13;94939.44;;;21.15;77.88
72409;BME280;60402;48.082;11.628;2022-08-19T12:37:39;94940.50;;;21.12;78.73
72409;BME280;60402;48.082;11.628;2022-08-19T12:40:10;94940.75;;;21.20;79.87
72409;BME280;60402;48.082;11.628;2022-08-19T12:42:37;94937.59;;;21.24;80.56
72409;BME280;60402;48.082;11.628;2022-08-19T12:45:07;94952.22;;;21.31;81.35
72409;BME280;60402;48.082;11.628;2022-08-19T12:47:32;94956.53;;;21.55;79.83
72409;BME280;60402;48.082;11.628;2022-08-19T12:49:57;94958.63;;;21.54;79.54
72409;BME280;60402;48.082;11.628;2022-08-19T12:52:25;94958.53;;;21.77;79.67
72409;BME280;60402;48.082;11.628;2022-08-19T12:54:52;94956.94;;;21.81;79.11
72409;BME280;60402;48.082;11.628;2022-08-19T12:57:17;94955.50;;;21.58;78.75
72409;BME280;60402;48.082;11.628;2022-08-19T12:59:43;94958.91;;;22.03;76.52
72409;BME280;60402;48.082;11.628;2022-08-19T13:02:08;94947.53;;;22.22;75.52